Terminal Aerodrome Forecast
Issued by NWS

Home | Current Version | Previous Version | Text Only | Print | Product List | Glossary On
Versions: 1 2 3 4 5 6 7 8 9 10 11 12 13 14 15 16 17 18 19 20 21 22 23 24 25 26 27 28 29 30 31 32
000
FTUS42 KCAE 271400 AAA
TAFOGB
TAF AMD
KOGB 271455Z 2715/2812 23008KT P6SM VCSH BKN015
      TEMPO 2715/2718 4SM -SHRA BR SCT015 OVC025
     FM271800 35012G18KT P6SM -SHRA OVC015
     FM272000 36009KT P6SM BKN025
     FM280100 33008KT P6SM SCT030 BKN060=

USA.gov is the U.S. government's official web portal to all federal, state and local government web resources and services.